Stafford Township, New Jersey
Current Conditions -  °F | °C
As of 5:35 AM on Saturday 22 Nov 2014 (Local Time) from KMJX Reporting Station
Clear Clear  
Wind Chill: -9°   Ceiling: Unl
Heat Index: -9°   Visibility: 10mi
Dew Point: -12°   Wind: 0mph
Humidity: 79%   Direction: NA
Pressure: 30.53"   Gusts: NA
Location:  39.7102°N, 74.2577°W
Report Text: KMJX 221035Z AUTO 00000KT 10SM CLR M09/M12 A3053 RMK AO1
Loading
Personal Weather Stations






























Interactive Weather Map New forecast layout! Learn more

10-Day Weather Forecast

Advertisements
Track Severe Weather on mobile